SGEN/ENO METAR and TAF weather

Enter ICAO airport designator
Station Type Date Time Source
SGEN METAR 2019/04/24 21:00 UTC NOAA

SGEN 242100Z 09005KT 9999 SCT030 BKN200 29/22 Q1014


Station Type Date Time Source
SGEN Decoded METAR 2019/04/24 21:00 UTC NOAA

Encarnacion, Paraguay (SGEN) 27-19S 055-50W 91M
Apr 24, 2019 - 05:00 PM EDT / 2019.04.24 2100 UTC
Wind: from the E (090 degrees) at 6 MPH (5 KT):0
Visibility: greater than 7 mile(s):0
Sky conditions: mostly cloudy
Temperature: 84 F (29 C)
Dew Point: 71 F (22 C)
Relative Humidity: 65%
Pressure (altimeter): 29.94 in. Hg (1014 hPa)
ob: SGEN 242100Z 09005KT 9999 SCT030 BKN200 29/22 Q1014
cycle: 21

Station Type Date Time Source
SGEN TAF 2019/04/24 18:00 UTC NOAA

TAF SGEN 241700Z 2418/2518 05008KT 9999 SCT027 TX31/2419Z TN20/2509Z
BECMG 2420/2423 9999 BKN020 PROB40 2504/2506 8000 TSRA BKN020 FEW040CB
BECMG 2508/2512 15006KT 5000 TSRA BKN013 FEW040CB
BECMG 2513/2515 VRB06KT 9999 BKN020

Example: see airport list